Back to Top

Language: 

My Weather Underground Personal Weather Station Historical Data with Graphs...

Delerius Weather Station Historical Data
Daily Summary for December 27, 2017 Units:  Metric    English   Both
« Previous Day
Next Day »
Daily Weekly Monthly Yearly Custom
  High: Low: Average:
Temperature: 3.1 °C 0.3 °C 1.9 °C
Dew Point: 1.6 °C -2.6 °C -0.4 °C
Humidity: 94 % 73 % 85 %
Wind Speed: 24.1 km/h 4.8 km/h 13.5 km/h
Wind Gust: 37 km/h - -
Wind:- - WNW
Pressure: 997.5 hPa 984.6 hPa -
Precipitation: 1.02 mm    
Historical Graphs
 
 
Tabular Data for December 27, 2017
Time Temperature Dew Point Pressure Wind Wind Speed Wind Gust Humidity Rainfall Rate (Hourly) solar Conditions
00:00 2.4 °C 1.6 °C 985.3 hPa NNE 14.5 km/h 24.1 km/h 94 % 0.25 mm 0 W/m2
00:05 2.4 °C 1.6 °C 985.3 hPa NNE 8 km/h 16.1 km/h 94 % 0.25 mm 0 W/m2
00:10 2.3 °C 1.4 °C 985.3 hPa NNE 12.9 km/h 20.9 km/h 94 % 0.25 mm 0 W/m2
00:13 2.3 °C 1.4 °C 985.3 hPa NNE 9.7 km/h 20.9 km/h 94 % 0.25 mm 0 W/m2
00:15 2.3 °C 1.4 °C 985.3 hPa NNE 11.3 km/h 20.9 km/h 94 % 0.25 mm 0 W/m2
00:18 2.2 °C 1.3 °C 985.3 hPa NNE 9.7 km/h 17.7 km/h 94 % 0.25 mm 0 W/m2
00:23 2.1 °C 1.2 °C 985.3 hPa NNE 12.9 km/h 19.3 km/h 94 % 0.25 mm 0 W/m2
00:25 2.1 °C 1.2 °C 985.3 hPa NNE 9.7 km/h 19.3 km/h 94 % 0.25 mm 0 W/m2
00:30 2.1 °C 1.2 °C 985.3 hPa NNE 11.3 km/h 20.9 km/h 94 % 0.25 mm 0 W/m2
00:35 2.1 °C 1.2 °C 985 hPa NNE 8 km/h 17.7 km/h 94 % 0.25 mm 0 W/m2
00:38 2.1 °C 1.2 °C 985 hPa NNE 9.7 km/h 17.7 km/h 94 % 0.25 mm 0 W/m2
00:39 2.1 °C 1.2 °C 985 hPa NNE 11.3 km/h 19.3 km/h 94 % 0.25 mm 0 W/m2
00:44 2 °C 1.1 °C 985 hPa NNE 12.9 km/h 25.7 km/h 94 % 0.51 mm 0 W/m2
00:49 2 °C 1.1 °C 985 hPa NNE 11.3 km/h 24.1 km/h 94 % 0.51 mm 0 W/m2
00:53 1.9 °C 1.1 °C 985 hPa NNE 12.9 km/h 19.3 km/h 94 % 0.25 mm 0 W/m2
00:58 1.9 °C 1.1 °C 985 hPa North 11.3 km/h 19.3 km/h 94 % 0.25 mm 0 W/m2
01:03 1.8 °C 0.9 °C 984.6 hPa North 12.9 km/h 24.1 km/h 94 % 0.51 mm 0 W/m2
01:08 1.8 °C 0.9 °C 984.6 hPa North 11.3 km/h 17.7 km/h 94 % 0.51 mm 0 W/m2
01:11 1.8 °C 0.9 °C 985 hPa NNE 14.5 km/h 29 km/h 94 % 0.51 mm 0 W/m2
01:14 1.8 °C 0.9 °C 984.6 hPa North 11.3 km/h 17.7 km/h 94 % 0.51 mm 0 W/m2
01:19 1.8 °C 0.9 °C 984.6 hPa North 12.9 km/h 24.1 km/h 94 % 0.51 mm 0 W/m2
01:24 1.8 °C 0.9 °C 985 hPa NNE 12.9 km/h 22.5 km/h 94 % 0.51 mm 0 W/m2
01:25 1.8 °C 0.9 °C 985 hPa North 11.3 km/h 20.9 km/h 94 % 0.51 mm 0 W/m2
01:26 1.8 °C 0.9 °C 984.6 hPa North 9.7 km/h 16.1 km/h 94 % 0.51 mm 0 W/m2
01:31 1.8 °C 0.9 °C 985 hPa North 14.5 km/h 25.7 km/h 94 % 0.51 mm 0 W/m2
01:36 1.9 °C 1.1 °C 984.6 hPa North 9.7 km/h 17.7 km/h 94 % 0.51 mm 0 W/m2
01:39 1.9 °C 1.1 °C 984.6 hPa NNE 8 km/h 12.9 km/h 94 % 0.51 mm 0 W/m2
01:43 1.9 °C 1.1 °C 985 hPa North 9.7 km/h 19.3 km/h 94 % 0.25 mm 0 W/m2
01:46 1.9 °C 1.1 °C 984.6 hPa NNE 16.1 km/h 29 km/h 94 % 0.25 mm 0 W/m2
01:50 2 °C 1.1 °C 985 hPa North 11.3 km/h 17.7 km/h 94 % 0.25 mm 0 W/m2
01:55 2.1 °C 1.1 °C 985 hPa North 11.3 km/h 19.3 km/h 93 % 0.25 mm 0 W/m2
01:57 2.1 °C 1.1 °C 984.6 hPa North 12.9 km/h 29 km/h 93 % 0.25 mm 0 W/m2
02:01 2.1 °C 1.1 °C 985 hPa North 9.7 km/h 17.7 km/h 93 % 0.25 mm 0 W/m2
02:02 2.1 °C 1.1 °C 985 hPa North 9.7 km/h 22.5 km/h 93 % 0 mm 0 W/m2
02:07 2.1 °C 1.1 °C 985 hPa North 9.7 km/h 20.9 km/h 93 % 0 mm 0 W/m2
02:12 2.2 °C 1.2 °C 985 hPa NNE 12.9 km/h 22.5 km/h 93 % 0 mm 0 W/m2
02:14 2.2 °C 1.2 °C 985 hPa NNE 12.9 km/h 22.5 km/h 93 % 0 mm 0 W/m2
02:18 2.2 °C 1.2 °C 985 hPa NNE 4.8 km/h 14.5 km/h 93 % 0 mm 0 W/m2
02:23 2.2 °C 1.2 °C 985 hPa North 9.7 km/h 19.3 km/h 93 % 0 mm 0 W/m2
02:26 2.2 °C 1.2 °C 985 hPa NNE 9.7 km/h 17.7 km/h 93 % 0 mm 0 W/m2
02:31 2.2 °C 1.2 °C 985 hPa NNE 8 km/h 16.1 km/h 93 % 0 mm 0 W/m2
02:33 2.3 °C 1.3 °C 985 hPa North 8 km/h 17.7 km/h 93 % 0 mm 0 W/m2
02:37 2.3 °C 1.3 °C 985 hPa North 12.9 km/h 22.5 km/h 93 % 0 mm 0 W/m2
02:42 2.3 °C 1.1 °C 985 hPa NNW 9.7 km/h 16.1 km/h 92 % 0 mm 0 W/m2
02:43 2.3 °C 1.1 °C 985 hPa North 11.3 km/h 24.1 km/h 92 % 0 mm 0 W/m2
02:44 2.3 °C 1.1 °C 985 hPa North 12.9 km/h 24.1 km/h 92 % 0 mm 0 W/m2
02:49 2.2 °C 1.1 °C 985 hPa North 12.9 km/h 20.9 km/h 92 % 0 mm 0 W/m2
02:54 2.2 °C 1.1 °C 985 hPa North 11.3 km/h 29 km/h 92 % 0 mm 0 W/m2
02:57 2.2 °C 1.1 °C 985 hPa North 11.3 km/h 17.7 km/h 92 % 0 mm 0 W/m2
02:58 2.2 °C 1.1 °C 985 hPa NNW 14.5 km/h 20.9 km/h 92 % 0 mm 0 W/m2
03:03 2.2 °C 1.1 °C 985 hPa North 9.7 km/h 19.3 km/h 92 % 0 mm 0 W/m2
03:07 2.2 °C 1.1 °C 985 hPa NNW 14.5 km/h 30.6 km/h 92 % 0 mm 0 W/m2
03:09 2.2 °C 1.1 °C 985 hPa North 16.1 km/h 32.2 km/h 92 % 0 mm 0 W/m2
03:15 2.2 °C 1.1 °C 985 hPa North 11.3 km/h 19.3 km/h 92 % 0 mm 0 W/m2
03:20 2.2 °C 1.1 °C 984.6 hPa NNW 11.3 km/h 17.7 km/h 92 % 0 mm 0 W/m2
03:22 2.1 °C 0.9 °C 984.6 hPa North 11.3 km/h 17.7 km/h 92 % 0 mm 0 W/m2
03:27 2.2 °C 1.1 °C 985 hPa NNW 11.3 km/h 19.3 km/h 92 % 0 mm 0 W/m2
03:29 2.2 °C 1.1 °C 985 hPa NNW 11.3 km/h 20.9 km/h 92 % 0 mm 0 W/m2
03:34 2.2 °C 1.1 °C 984.6 hPa NNW 17.7 km/h 29 km/h 92 % 0 mm 0 W/m2
03:35 2.2 °C 1.1 °C 984.6 hPa NNW 17.7 km/h 29 km/h 92 % 0 mm 0 W/m2
03:40 2.2 °C 1.1 °C 985 hPa North 16.1 km/h 29 km/h 92 % 0 mm 0 W/m2
03:43 2.2 °C 1.1 °C 985 hPa North 12.9 km/h 24.1 km/h 92 % 0 mm 0 W/m2
03:44 2.3 °C 1.3 °C 985 hPa NNW 12.9 km/h 24.1 km/h 93 % 0 mm 0 W/m2
03:49 2.3 °C 1.1 °C 985 hPa North 6.4 km/h 17.7 km/h 92 % 0 mm 0 W/m2
03:50 2.3 °C 1.1 °C 985 hPa NNW 11.3 km/h 19.3 km/h 92 % 0 mm 0 W/m2
03:55 2.2 °C 1.1 °C 985 hPa North 14.5 km/h 20.9 km/h 92 % 0 mm 0 W/m2
03:56 2.2 °C 1.1 °C 985 hPa North 12.9 km/h 20.9 km/h 92 % 0 mm 0 W/m2
03:58 2.2 °C 1.1 °C 985 hPa North 16.1 km/h 37 km/h 92 % 0 mm 0 W/m2
04:02 2.2 °C 1.1 °C 985 hPa North 11.3 km/h 20.9 km/h 92 % 0 mm 0 W/m2
04:07 2.2 °C 1.1 °C 985 hPa North 14.5 km/h 22.5 km/h 92 % 0 mm 0 W/m2
04:09 2.2 °C 1.1 °C 985 hPa NNW 16.1 km/h 25.7 km/h 92 % 0 mm 0 W/m2
04:12 2.2 °C 1.1 °C 985 hPa NNW 16.1 km/h 24.1 km/h 92 % 0 mm 0 W/m2
04:16 2.1 °C 0.9 °C 985 hPa NNW 16.1 km/h 22.5 km/h 92 % 0 mm 0 W/m2
04:18 2.1 °C 0.9 °C 985 hPa NNW 16.1 km/h 24.1 km/h 92 % 0 mm 0 W/m2
04:22 2.1 °C 0.9 °C 985 hPa NNW 11.3 km/h 20.9 km/h 92 % 0 mm 0 W/m2
04:25 2.1 °C 0.9 °C 985 hPa NNW 14.5 km/h 20.9 km/h 92 % 0 mm 0 W/m2
04:29 2.1 °C 0.9 °C 985 hPa NNW 12.9 km/h 20.9 km/h 92 % 0 mm 0 W/m2
04:30 2.1 °C 0.9 °C 985 hPa NNW 11.3 km/h 16.1 km/h 92 % 0 mm 0 W/m2
04:35 2.1 °C 0.9 °C 985.3 hPa NNW 11.3 km/h 17.7 km/h 92 % 0 mm 0 W/m2
04:40 2.2 °C 0.9 °C 985.3 hPa NNW 14.5 km/h 24.1 km/h 91 % 0 mm 0 W/m2
04:41 2.2 °C 0.9 °C 985.3 hPa NNW 16.1 km/h 24.1 km/h 91 % 0 mm 0 W/m2
04:46 2.2 °C 0.9 °C 985.3 hPa NNW 14.5 km/h 24.1 km/h 91 % 0 mm 0 W/m2
04:47 2.2 °C 0.9 °C 985.3 hPa NNW 14.5 km/h 24.1 km/h 91 % 0 mm 0 W/m2
04:48 2.2 °C 0.9 °C 985.3 hPa NNW 9.7 km/h 16.1 km/h 91 % 0 mm 0 W/m2
04:53 2.2 °C 0.9 °C 985.3 hPa NNW 12.9 km/h 24.1 km/h 91 % 0 mm 0 W/m2
04:54 2.2 °C 0.9 °C 985.3 hPa NNW 9.7 km/h 16.1 km/h 91 % 0 mm 0 W/m2
04:59 2.3 °C 0.8 °C 985.3 hPa NNW 16.1 km/h 24.1 km/h 90 % 0 mm 0 W/m2
05:00 2.3 °C 0.8 °C 985.7 hPa NNW 16.1 km/h 24.1 km/h 90 % 0 mm 0 W/m2
05:01 2.3 °C 0.8 °C 985.7 hPa NNW 16.1 km/h 24.1 km/h 90 % 0 mm 0 W/m2
05:06 2.3 °C 0.8 °C 985.7 hPa NNW 16.1 km/h 30.6 km/h 90 % 0 mm 0 W/m2
05:11 2.3 °C 0.8 °C 985.7 hPa NNW 14.5 km/h 20.9 km/h 90 % 0 mm 0 W/m2
05:16 2.4 °C 0.9 °C 985.7 hPa NNW 14.5 km/h 24.1 km/h 90 % 0 mm 0 W/m2
05:18 2.4 °C 0.9 °C 985.7 hPa NNW 17.7 km/h 24.1 km/h 90 % 0 mm 0 W/m2
05:20 2.4 °C 0.9 °C 985.7 hPa NNW 14.5 km/h 29 km/h 90 % 0 mm 0 W/m2
05:23 2.4 °C 0.8 °C 986 hPa NNW 16.1 km/h 29 km/h 89 % 0 mm 0 W/m2
05:28 2.4 °C 0.8 °C 986 hPa NNW 16.1 km/h 35.4 km/h 89 % 0 mm 0 W/m2
05:31 2.4 °C 0.8 °C 986 hPa NNW 16.1 km/h 30.6 km/h 89 % 0 mm 0 W/m2
05:34 2.4 °C 0.8 °C 986 hPa NNW 16.1 km/h 29 km/h 89 % 0 mm 0 W/m2
05:36 2.4 °C 0.8 °C 986 hPa NNW 17.7 km/h 30.6 km/h 89 % 0 mm 0 W/m2
05:41 2.4 °C 0.8 °C 986 hPa NNW 12.9 km/h 24.1 km/h 89 % 0 mm 0 W/m2
05:42 2.4 °C 0.8 °C 986 hPa NNW 12.9 km/h 24.1 km/h 89 % 0 mm 0 W/m2
05:47 2.4 °C 0.8 °C 986 hPa NNW 16.1 km/h 24.1 km/h 89 % 0 mm 0 W/m2
05:52 2.4 °C 0.8 °C 986 hPa NNW 12.9 km/h 22.5 km/h 89 % 0 mm 0 W/m2
05:53 2.4 °C 0.8 °C 986 hPa NNW 14.5 km/h 25.7 km/h 89 % 0 mm 0 W/m2
05:58 2.4 °C 0.9 °C 986 hPa NNW 16.1 km/h 25.7 km/h 90 % 0 mm 0 W/m2
05:59 2.4 °C 0.9 °C 986 hPa NNW 17.7 km/h 25.7 km/h 90 % 0 mm 0 W/m2
06:04 2.5 °C 1 °C 986.3 hPa NNW 12.9 km/h 22.5 km/h 90 % 0 mm 0 W/m2
06:05 2.5 °C 1 °C 986.3 hPa NNW 14.5 km/h 20.9 km/h 90 % 0 mm 0 W/m2
06:10 2.6 °C 1.1 °C 986.3 hPa NNW 17.7 km/h 25.7 km/h 90 % 0 mm 0 W/m2
06:15 2.6 °C 1.1 °C 986.3 hPa NNW 12.9 km/h 24.1 km/h 90 % 0 mm 0 W/m2
06:20 2.6 °C 1.1 °C 986.3 hPa North 16.1 km/h 30.6 km/h 90 % 0 mm 0 W/m2
06:26 2.6 °C 1.1 °C 986.3 hPa NNW 11.3 km/h 19.3 km/h 90 % 0 mm 0 W/m2
06:31 2.6 °C 1.1 °C 986.7 hPa NNW 16.1 km/h 30.6 km/h 90 % 0 mm 0 W/m2
06:36 2.6 °C 1.1 °C 986.7 hPa NNW 16.1 km/h 32.2 km/h 90 % 0 mm 0 W/m2
06:37 2.6 °C 1.1 °C 986.7 hPa NNW 16.1 km/h 32.2 km/h 90 % 0 mm 0 W/m2
06:38 2.6 °C 1.1 °C 986.7 hPa NNW 12.9 km/h 29 km/h 90 % 0 mm 0 W/m2
06:43 2.6 °C 1.1 °C 986.7 hPa NNW 11.3 km/h 16.1 km/h 90 % 0 mm 0 W/m2
06:45 2.6 °C 1.1 °C 986.7 hPa NNW 12.9 km/h 22.5 km/h 90 % 0 mm 0 W/m2
06:50 2.6 °C 1.1 °C 986.7 hPa NNW 14.5 km/h 20.9 km/h 90 % 0 mm 0 W/m2
06:52 2.6 °C 1.1 °C 987 hPa NNW 14.5 km/h 32.2 km/h 90 % 0 mm 0 W/m2
06:57 2.6 °C 1.3 °C 987 hPa NNW 14.5 km/h 24.1 km/h 91 % 0 mm 0 W/m2
07:02 2.6 °C 1.3 °C 987 hPa NNW 9.7 km/h 22.5 km/h 91 % 0 mm 0 W/m2
07:03 2.6 °C 1.3 °C 987 hPa NNW 8 km/h 14.5 km/h 91 % 0 mm 0 W/m2
07:08 2.6 °C 1.3 °C 987 hPa NNW 12.9 km/h 22.5 km/h 91 % 0 mm 0 W/m2
07:10 2.6 °C 1.3 °C 987 hPa NW 12.9 km/h 22.5 km/h 91 % 0 mm 0 W/m2
07:15 2.6 °C 1.3 °C 987.4 hPa NNW 11.3 km/h 22.5 km/h 91 % 0 mm 0 W/m2
07:17 2.6 °C 1.3 °C 987.4 hPa NNW 11.3 km/h 20.9 km/h 91 % 0 mm 0 W/m2
07:22 2.6 °C 1.1 °C 987.4 hPa NNW 17.7 km/h 30.6 km/h 90 % 0 mm 0 W/m2
07:24 2.6 °C 1.1 °C 987.4 hPa NNW 12.9 km/h 22.5 km/h 90 % 0 mm 0 W/m2
07:28 2.6 °C 1.1 °C 987.4 hPa NNW 14.5 km/h 20.9 km/h 90 % 0 mm 0 W/m2
07:30 2.6 °C 1.1 °C 987.4 hPa NW 14.5 km/h 25.7 km/h 90 % 0 mm 0 W/m2
07:35 2.6 °C 1.1 °C 987.4 hPa NNW 14.5 km/h 32.2 km/h 90 % 0 mm 0 W/m2
07:37 2.6 °C 1.1 °C 987.7 hPa NNW 14.5 km/h 20.9 km/h 90 % 0 mm 0 W/m2
07:42 2.6 °C 1.1 °C 987.7 hPa NNW 12.9 km/h 20.9 km/h 90 % 0 mm 0 W/m2
07:43 2.6 °C 1.1 °C 987.7 hPa NW 12.9 km/h 20.9 km/h 90 % 0 mm 0 W/m2
07:45 2.6 °C 1.1 °C 987.7 hPa NNW 14.5 km/h 25.7 km/h 90 % 0 mm 0 W/m2
07:50 2.7 °C 1.2 °C 987.7 hPa NNW 16.1 km/h 25.7 km/h 90 % 0 mm 0 W/m2
07:52 2.7 °C 1.2 °C 987.7 hPa NNW 16.1 km/h 25.7 km/h 90 % 0 mm 0 W/m2
07:53 2.7 °C 1.2 °C 987.7 hPa NW 14.5 km/h 24.1 km/h 90 % 0 mm 0 W/m2
07:59 2.7 °C 1.2 °C 987.7 hPa NNW 16.1 km/h 29 km/h 90 % 0 mm 0 W/m2
08:00 2.7 °C 1.2 °C 987.7 hPa NW 17.7 km/h 30.6 km/h 90 % 0 mm 0 W/m2
08:05 2.7 °C 1.2 °C 988 hPa NNW 12.9 km/h 24.1 km/h 90 % 0 mm 0 W/m2
08:07 2.7 °C 1.2 °C 988 hPa NNW 11.3 km/h 24.1 km/h 90 % 0 mm 0 W/m2
08:12 2.7 °C 1.2 °C 988 hPa NW 14.5 km/h 24.1 km/h 90 % 0 mm 0 W/m2
08:13 2.7 °C 1.4 °C 988 hPa NW 17.7 km/h 32.2 km/h 91 % 0 mm 0 W/m2
08:18 2.7 °C 1.2 °C 988 hPa NNW 22.5 km/h 33.8 km/h 90 % 0 mm 0 W/m2
08:20 2.7 °C 1.4 °C 988.4 hPa NNW 16.1 km/h 25.7 km/h 91 % 0 mm 0 W/m2
08:25 2.7 °C 1.4 °C 988.4 hPa NNW 17.7 km/h 29 km/h 91 % 0 mm 0 W/m2
08:26 2.7 °C 1.4 °C 988.4 hPa NNW 16.1 km/h 29 km/h 91 % 0 mm 0 W/m2
08:31 2.7 °C 1.4 °C 988.7 hPa NNW 16.1 km/h 25.7 km/h 91 % 0 mm 0 W/m2
08:36 2.7 °C 1.4 °C 988.7 hPa NNW 16.1 km/h 25.7 km/h 91 % 0 mm 0 W/m2
08:37 2.7 °C 1.4 °C 988.7 hPa NNW 16.1 km/h 25.7 km/h 91 % 0 mm 0 W/m2
08:38 2.7 °C 1.4 °C 988.7 hPa NNW 17.7 km/h 35.4 km/h 91 % 0.25 mm 0 W/m2
08:43 2.6 °C 1.3 °C 988.7 hPa NNW 11.3 km/h 22.5 km/h 91 % 0.25 mm 0 W/m2
08:44 2.6 °C 1.3 °C 989.1 hPa NNW 11.3 km/h 24.1 km/h 91 % 0.25 mm 5 W/m2
08:49 2.4 °C 1.1 °C 989.1 hPa NNW 24.1 km/h 37 km/h 91 % 0.25 mm 7 W/m2
08:50 2.4 °C 1.1 °C 989.1 hPa NNW 19.3 km/h 35.4 km/h 91 % 0.25 mm 7 W/m2
08:55 2.3 °C 1 °C 989.1 hPa NNW 20.9 km/h 33.8 km/h 91 % 0.25 mm 7 W/m2
08:57 2.3 °C 1 °C 989.1 hPa NNW 20.9 km/h 37 km/h 91 % 0.25 mm 9 W/m2
08:59 2.3 °C 1.1 °C 989.1 hPa NW 20.9 km/h 37 km/h 92 % 0.25 mm 9 W/m2
09:04 2.2 °C 1.1 °C 989.4 hPa NNW 11.3 km/h 30.6 km/h 92 % 0.25 mm 11 W/m2
09:09 2.3 °C 1.1 °C 989.4 hPa NNW 12.9 km/h 22.5 km/h 92 % 0.25 mm 9 W/m2
09:10 2.2 °C 1.1 °C 989.4 hPa NW 12.9 km/h 22.5 km/h 92 % 0.25 mm 9 W/m2
09:15 2.3 °C 1.1 °C 989.7 hPa NW 14.5 km/h 33.8 km/h 92 % 0.25 mm 7 W/m2
09:18 2.2 °C 1.1 °C 989.7 hPa NW 14.5 km/h 24.1 km/h 92 % 0.25 mm 9 W/m2
09:20 2.2 °C 1.1 °C 990.1 hPa NNW 9.7 km/h 17.7 km/h 92 % 0.25 mm 9 W/m2
09:25 2.1 °C 0.9 °C 990.1 hPa NNW 17.7 km/h 32.2 km/h 92 % 0.51 mm 0 W/m2
09:30 1.9 °C 0.7 °C 990.1 hPa NNW 11.3 km/h 22.5 km/h 92 % 0.51 mm 7 W/m2
09:31 1.9 °C 0.7 °C 990.1 hPa NNW 11.3 km/h 22.5 km/h 92 % 0.51 mm 7 W/m2
09:32 1.9 °C 0.7 °C 990.1 hPa NNW 12.9 km/h 19.3 km/h 92 % 0.51 mm 7 W/m2
09:36 1.9 °C 0.9 °C 990.1 hPa NW 9.7 km/h 16.1 km/h 93 % 0.51 mm 9 W/m2
09:41 1.9 °C 0.9 °C 990.1 hPa NNW 8 km/h 12.9 km/h 93 % 0.51 mm 12 W/m2
09:43 1.9 °C 0.9 °C 990.4 hPa NNW 6.4 km/h 12.9 km/h 93 % 0.51 mm 14 W/m2
09:48 1.9 °C 0.9 °C 990.4 hPa NW 9.7 km/h 16.1 km/h 93 % 0.51 mm 18 W/m2
09:52 2 °C 1 °C 990.4 hPa NW 9.7 km/h 22.5 km/h 93 % 0.51 mm 21 W/m2
09:54 2 °C 1 °C 990.4 hPa NW 12.9 km/h 22.5 km/h 93 % 0.51 mm 25 W/m2
09:59 2.1 °C 1.1 °C 990.4 hPa NW 11.3 km/h 19.3 km/h 93 % 0.51 mm 30 W/m2
10:01 2.1 °C 1.1 °C 990.4 hPa NW 11.3 km/h 17.7 km/h 93 % 0.51 mm 33 W/m2
10:06 2.2 °C 1.2 °C 990.7 hPa NW 12.9 km/h 22.5 km/h 93 % 0.51 mm 37 W/m2
10:08 2.2 °C 1.2 °C 990.7 hPa NW 16.1 km/h 33.8 km/h 93 % 0.51 mm 39 W/m2
10:12 2.3 °C 1.1 °C 990.7 hPa NW 9.7 km/h 19.3 km/h 92 % 0.51 mm 42 W/m2
10:17 2.3 °C 1.1 °C 990.7 hPa NW 14.5 km/h 24.1 km/h 92 % 0.51 mm 49 W/m2
10:19 2.3 °C 1 °C 990.7 hPa NNW 12.9 km/h 24.1 km/h 91 % 0.51 mm 51 W/m2
10:21 2.3 °C 1 °C 991.1 hPa NW 14.5 km/h 29 km/h 91 % 0.51 mm 56 W/m2
10:26 2.4 °C 0.9 °C 991.1 hPa NW 14.5 km/h 32.2 km/h 90 % 0.25 mm 62 W/m2
10:28 2.5 °C 1 °C 991.1 hPa NW 14.5 km/h 32.2 km/h 90 % 0.25 mm 63 W/m2
10:31 2.6 °C 1.1 °C 991.1 hPa NW 19.3 km/h 35.4 km/h 90 % 0.25 mm 69 W/m2
10:36 2.6 °C 0.8 °C 991.1 hPa NW 17.7 km/h 32.2 km/h 88 % 0 mm 70 W/m2
10:37 2.6 °C 0.8 °C 991.1 hPa NW 17.7 km/h 32.2 km/h 88 % 0 mm 72 W/m2
10:39 2.6 °C 0.8 °C 991.1 hPa NW 19.3 km/h 37 km/h 88 % 0 mm 72 W/m2
10:43 2.6 °C 0.8 °C 991.1 hPa NW 14.5 km/h 29 km/h 88 % 0 mm 72 W/m2
10:49 2.7 °C 0.8 °C 991.1 hPa NW 12.9 km/h 22.5 km/h 87 % 0 mm 77 W/m2
10:54 2.7 °C 0.8 °C 991.1 hPa NW 14.5 km/h 22.5 km/h 87 % 0 mm 83 W/m2
10:55 2.7 °C 0.8 °C 991.4 hPa NW 14.5 km/h 22.5 km/h 87 % 0 mm 83 W/m2
11:00 2.7 °C 0.6 °C 991.4 hPa NW 12.9 km/h 25.7 km/h 86 % 0 mm 83 W/m2
11:01 2.7 °C 0.6 °C 991.4 hPa NW 12.9 km/h 25.7 km/h 86 % 0 mm 83 W/m2
11:06 2.7 °C 0.6 °C 991.4 hPa NW 17.7 km/h 24.1 km/h 86 % 0 mm 90 W/m2
11:08 2.7 °C 0.4 °C 991.4 hPa NW 16.1 km/h 24.1 km/h 85 % 0 mm 93 W/m2
11:12 2.7 °C 0.3 °C 991.4 hPa NW 22.5 km/h 35.4 km/h 84 % 0 mm 102 W/m2
11:13 2.7 °C 0.3 °C 991.4 hPa NW 20.9 km/h 35.4 km/h 84 % 0 mm 104 W/m2
11:18 2.8 °C 0.4 °C 991.4 hPa NW 17.7 km/h 30.6 km/h 84 % 0 mm 105 W/m2
11:20 2.8 °C 0.4 °C 991.4 hPa NW 16.1 km/h 25.7 km/h 84 % 0 mm 104 W/m2
11:24 2.8 °C 0.2 °C 991.4 hPa NW 12.9 km/h 20.9 km/h 83 % 0 mm 105 W/m2
11:29 2.9 °C 0.3 °C 991.4 hPa NW 12.9 km/h 19.3 km/h 83 % 0 mm 109 W/m2
11:30 2.9 °C 0.3 °C 991.4 hPa NW 11.3 km/h 17.7 km/h 83 % 0 mm 111 W/m2
11:35 2.9 °C 0.3 °C 991.8 hPa NW 16.1 km/h 25.7 km/h 83 % 0 mm 118 W/m2
11:40 2.9 °C 0.1 °C 991.8 hPa NW 14.5 km/h 24.1 km/h 82 % 0 mm 107 W/m2
11:41 2.9 °C 0.1 °C 991.8 hPa NW 14.5 km/h 24.1 km/h 82 % 0 mm 111 W/m2
11:46 2.9 °C -0.1 °C 991.8 hPa NW 17.7 km/h 32.2 km/h 81 % 0 mm 137 W/m2
11:48 2.9 °C -0.1 °C 991.8 hPa NW 14.5 km/h 24.1 km/h 81 % 0 mm 142 W/m2
11:51 3 °C 0.1 °C 991.8 hPa NW 19.3 km/h 33.8 km/h 81 % 0 mm 144 W/m2
11:54 3 °C 0.1 °C 991.8 hPa NW 16.1 km/h 29 km/h 81 % 0 mm 137 W/m2
11:59 3.1 °C 0 °C 991.8 hPa NW 12.9 km/h 22.5 km/h 80 % 0 mm 125 W/m2
12:01 3.1 °C 0 °C 991.8 hPa NW 12.9 km/h 20.9 km/h 80 % 0 mm 121 W/m2
12:09 3 °C -0.3 °C 991.8 hPa NW 17.7 km/h 30.6 km/h 79 % 0 mm 123 W/m2
12:14 3 °C -0.3 °C 992.1 hPa NW 14.5 km/h 25.7 km/h 79 % 0 mm 114 W/m2
12:18 2.9 °C -0.4 °C 992.1 hPa NW 16.1 km/h 29 km/h 79 % 0 mm 113 W/m2
12:23 2.9 °C -0.6 °C 992.1 hPa NW 14.5 km/h 24.1 km/h 78 % 0 mm 109 W/m2
12:28 2.9 °C -0.6 °C 992.1 hPa NW 19.3 km/h 30.6 km/h 78 % 0 mm 107 W/m2
12:31 2.8 °C -0.7 °C 992.1 hPa NW 16.1 km/h 22.5 km/h 78 % 0 mm 107 W/m2
12:32 2.8 °C -0.8 °C 992.1 hPa NW 16.1 km/h 25.7 km/h 77 % 0 mm 107 W/m2
12:37 2.8 °C -0.8 °C 992.4 hPa WNW 16.1 km/h 25.7 km/h 77 % 0 mm 109 W/m2
12:41 2.8 °C -0.8 °C 992.4 hPa NW 14.5 km/h 25.7 km/h 77 % 0 mm 105 W/m2
12:46 2.8 °C -0.7 °C 992.4 hPa NW 11.3 km/h 19.3 km/h 78 % 0 mm 98 W/m2
12:51 2.8 °C -0.8 °C 992.4 hPa NW 12.9 km/h 20.9 km/h 77 % 0 mm 93 W/m2
12:53 2.8 °C -0.8 °C 992.4 hPa NW 11.3 km/h 17.7 km/h 77 % 0 mm 91 W/m2
12:54 2.8 °C -0.8 °C 992.4 hPa NW 14.5 km/h 20.9 km/h 77 % 0 mm 91 W/m2
12:59 2.8 °C -0.8 °C 992.8 hPa NW 16.1 km/h 24.1 km/h 77 % 0 mm 90 W/m2
13:01 2.8 °C -1 °C 992.8 hPa NW 16.1 km/h 24.1 km/h 76 % 0 mm 90 W/m2
13:06 2.8 °C -1 °C 992.8 hPa NW 12.9 km/h 29 km/h 76 % 0 mm 93 W/m2
13:07 2.8 °C -0.8 °C 992.8 hPa NW 14.5 km/h 29 km/h 77 % 0 mm 93 W/m2
13:12 2.7 °C -1.1 °C 992.8 hPa NW 14.5 km/h 25.7 km/h 76 % 0 mm 95 W/m2
13:17 2.7 °C -1.1 °C 992.8 hPa NW 17.7 km/h 32.2 km/h 76 % 0 mm 97 W/m2
13:18 2.7 °C -1.1 °C 992.8 hPa NW 14.5 km/h 22.5 km/h 76 % 0 mm 97 W/m2
13:23 2.7 °C -0.9 °C 992.8 hPa NW 12.9 km/h 30.6 km/h 77 % 0 mm 97 W/m2
13:28 2.7 °C -0.9 °C 992.8 hPa WNW 20.9 km/h 33.8 km/h 77 % 0 mm 98 W/m2
13:33 2.6 °C -1.2 °C 992.8 hPa WNW 16.1 km/h 22.5 km/h 76 % 0 mm 104 W/m2
13:35 2.6 °C -1.2 °C 992.8 hPa NW 17.7 km/h 29 km/h 76 % 0 mm 104 W/m2
13:36 2.6 °C -1.2 °C 992.8 hPa NW 17.7 km/h 29 km/h 76 % 0 mm 105 W/m2
13:41 2.6 °C -1.2 °C 993.1 hPa WNW 17.7 km/h 33.8 km/h 76 % 0 mm 104 W/m2
13:46 2.6 °C -1.1 °C 993.1 hPa NW 16.1 km/h 25.7 km/h 77 % 0 mm 107 W/m2
13:47 2.6 °C -1.1 °C 992.8 hPa NW 16.1 km/h 25.7 km/h 77 % 0 mm 107 W/m2
13:51 2.6 °C -1.2 °C 993.1 hPa NW 17.7 km/h 32.2 km/h 76 % 0 mm 105 W/m2
13:53 2.6 °C -1.2 °C 993.1 hPa NW 16.1 km/h 29 km/h 76 % 0 mm 102 W/m2
13:58 2.6 °C -1.2 °C 993.1 hPa NW 14.5 km/h 25.7 km/h 76 % 0 mm 97 W/m2
14:00 2.6 °C -1.2 °C 993.1 hPa NW 14.5 km/h 20.9 km/h 76 % 0 mm 98 W/m2
14:04 2.6 °C -1.2 °C 993.1 hPa NW 16.1 km/h 24.1 km/h 76 % 0 mm 102 W/m2
14:06 2.6 °C -1.2 °C 993.1 hPa NW 19.3 km/h 29 km/h 76 % 0 mm 116 W/m2
14:11 2.6 °C -1.2 °C 993.1 hPa WNW 17.7 km/h 37 km/h 76 % 0 mm 123 W/m2
14:14 2.7 °C -1.1 °C 993.1 hPa NW 19.3 km/h 33.8 km/h 76 % 0 mm 102 W/m2
14:19 2.7 °C -1.1 °C 993.1 hPa WNW 14.5 km/h 22.5 km/h 76 % 0 mm 113 W/m2
14:22 2.7 °C -1.1 °C 993.1 hPa NW 16.1 km/h 24.1 km/h 76 % 0 mm 146 W/m2
14:26 2.8 °C -1 °C 993.1 hPa WNW 17.7 km/h 35.4 km/h 76 % 0 mm 105 W/m2
14:28 2.8 °C -1 °C 993.5 hPa WNW 14.5 km/h 24.1 km/h 76 % 0 mm 135 W/m2
14:30 2.9 °C -1.1 °C 993.5 hPa NW 16.1 km/h 29 km/h 75 % 0 mm 167 W/m2
14:33 3 °C -1.2 °C 993.5 hPa NW 19.3 km/h 37 km/h 74 % 0 mm 149 W/m2
14:38 3.1 °C -1.1 °C 993.5 hPa NW 20.9 km/h 32.2 km/h 74 % 0 mm 142 W/m2
14:39 3.1 °C -1.3 °C 993.5 hPa NW 20.9 km/h 32.2 km/h 73 % 0 mm 139 W/m2
14:44 3.1 °C -1.3 °C 993.5 hPa NW 19.3 km/h 29 km/h 73 % 0 mm 120 W/m2
14:47 3.1 °C -1.3 °C 993.5 hPa NW 19.3 km/h 33.8 km/h 73 % 0 mm 111 W/m2
14:51 3 °C -1.4 °C 993.5 hPa NW 20.9 km/h 32.2 km/h 73 % 0 mm 98 W/m2
14:55 2.9 °C -1.4 °C 993.5 hPa NW 17.7 km/h 30.6 km/h 73 % 0 mm 86 W/m2
15:00 2.8 °C -1.6 °C 993.5 hPa NW 19.3 km/h 30.6 km/h 73 % 0 mm 63 W/m2
15:05 2.8 °C -1.6 °C 993.8 hPa NW 17.7 km/h 29 km/h 73 % 0 mm 33 W/m2
15:06 2.8 °C -1.6 °C 993.8 hPa NW 17.7 km/h 29 km/h 73 % 0 mm 33 W/m2
15:11 2.7 °C -1.5 °C 993.8 hPa WNW 11.3 km/h 20.9 km/h 74 % 0 mm 28 W/m2
15:13 2.7 °C -1.5 °C 993.8 hPa WNW 11.3 km/h 24.1 km/h 74 % 0 mm 25 W/m2
15:18 2.6 °C -1.6 °C 993.8 hPa WNW 16.1 km/h 24.1 km/h 74 % 0 mm 21 W/m2
15:20 2.6 °C -1.6 °C 993.8 hPa WNW 16.1 km/h 29 km/h 74 % 0 mm 21 W/m2
15:22 2.6 °C -1.6 °C 993.8 hPa WNW 14.5 km/h 24.1 km/h 74 % 0 mm 19 W/m2
15:26 2.5 °C -1.5 °C 993.8 hPa WNW 16.1 km/h 20.9 km/h 75 % 0 mm 18 W/m2
15:28 2.5 °C -1.7 °C 993.8 hPa WNW 16.1 km/h 24.1 km/h 74 % 0 mm 18 W/m2
15:32 2.4 °C -1.6 °C 993.8 hPa WNW 14.5 km/h 25.7 km/h 75 % 0 mm 16 W/m2
15:37 2.3 °C -1.7 °C 993.8 hPa WNW 14.5 km/h 29 km/h 75 % 0 mm 12 W/m2
15:42 2.2 °C -1.8 °C 994.1 hPa WNW 16.1 km/h 22.5 km/h 75 % 0 mm 11 W/m2
15:43 2.2 °C -1.8 °C 994.1 hPa WNW 14.5 km/h 22.5 km/h 75 % 0 mm 9 W/m2
15:47 2.1 °C -1.7 °C 994.1 hPa WNW 12.9 km/h 20.9 km/h 76 % 0 mm 7 W/m2
15:49 2.1 °C -1.7 °C 994.1 hPa WNW 11.3 km/h 16.1 km/h 76 % 0 mm 7 W/m2
15:54 2.1 °C -1.7 °C 994.1 hPa WNW 11.3 km/h 17.7 km/h 76 % 0 mm 5 W/m2
15:59 1.9 °C -1.7 °C 994.1 hPa WNW 11.3 km/h 17.7 km/h 77 % 0 mm 0 W/m2
16:00 1.8 °C -1.8 °C 994.1 hPa WNW 12.9 km/h 17.7 km/h 77 % 0 mm 0 W/m2
16:05 1.8 °C -1.6 °C 994.1 hPa WNW 14.5 km/h 20.9 km/h 78 % 0 mm 0 W/m2
16:09 1.7 °C -1.7 °C 994.1 hPa WNW 11.3 km/h 17.7 km/h 78 % 0 mm 0 W/m2
16:14 1.6 °C -1.8 °C 994.1 hPa WNW 12.9 km/h 20.9 km/h 78 % 0 mm 0 W/m2
16:17 1.6 °C -1.7 °C 994.1 hPa WNW 11.3 km/h 17.7 km/h 79 % 0 mm 0 W/m2
16:22 1.4 °C -1.8 °C 994.5 hPa WNW 12.9 km/h 22.5 km/h 79 % 0 mm 0 W/m2
16:24 1.4 °C -1.8 °C 994.5 hPa WNW 14.5 km/h 25.7 km/h 79 % 0 mm 0 W/m2
16:27 1.4 °C -1.8 °C 994.5 hPa NW 12.9 km/h 19.3 km/h 79 % 0 mm 0 W/m2
16:32 1.4 °C -1.8 °C 994.5 hPa WNW 14.5 km/h 24.1 km/h 79 % 0 mm 0 W/m2
16:34 1.4 °C -1.8 °C 994.5 hPa WNW 14.5 km/h 20.9 km/h 79 % 0 mm 0 W/m2
16:39 1.3 °C -1.9 °C 994.8 hPa WNW 14.5 km/h 22.5 km/h 79 % 0 mm 0 W/m2
16:44 1.3 °C -1.9 °C 994.5 hPa WNW 14.5 km/h 24.1 km/h 79 % 0 mm 0 W/m2
16:49 1.3 °C -1.8 °C 994.5 hPa WNW 12.9 km/h 20.9 km/h 80 % 0 mm 0 W/m2
16:53 1.2 °C -1.9 °C 994.8 hPa WNW 14.5 km/h 22.5 km/h 80 % 0 mm 0 W/m2
16:54 1.2 °C -1.9 °C 994.8 hPa WNW 12.9 km/h 19.3 km/h 80 % 0 mm 0 W/m2
16:58 1.2 °C -1.9 °C 994.8 hPa WNW 14.5 km/h 24.1 km/h 80 % 0 mm 0 W/m2
17:03 1.2 °C -1.9 °C 994.8 hPa WNW 12.9 km/h 29 km/h 80 % 0 mm 0 W/m2
17:05 1.2 °C -1.9 °C 994.8 hPa WNW 12.9 km/h 29 km/h 80 % 0 mm 0 W/m2
17:10 1.2 °C -1.9 °C 994.8 hPa WNW 14.5 km/h 22.5 km/h 80 % 0 mm 0 W/m2
17:14 1.2 °C -1.9 °C 995.1 hPa WNW 14.5 km/h 20.9 km/h 80 % 0 mm 0 W/m2
17:19 1.1 °C -1.9 °C 995.1 hPa NW 8 km/h 16.1 km/h 80 % 0 mm 0 W/m2
17:21 1.1 °C -1.9 °C 995.1 hPa WNW 11.3 km/h 19.3 km/h 80 % 0 mm 0 W/m2
17:26 1.1 °C -1.9 °C 995.1 hPa WNW 11.3 km/h 19.3 km/h 80 % 0 mm 0 W/m2
17:28 1.1 °C -1.9 °C 995.1 hPa WNW 11.3 km/h 19.3 km/h 80 % 0 mm 0 W/m2
17:33 1 °C -2.1 °C 995.1 hPa WNW 14.5 km/h 22.5 km/h 80 % 0 mm 0 W/m2
17:38 1 °C -2.1 °C 995.1 hPa WNW 12.9 km/h 20.9 km/h 80 % 0 mm 0 W/m2
17:39 1 °C -2.1 °C 995.1 hPa WNW 14.5 km/h 20.9 km/h 80 % 0 mm 0 W/m2
17:43 1 °C -2.1 °C 995.1 hPa WNW 14.5 km/h 20.9 km/h 80 % 0 mm 0 W/m2
17:48 0.9 °C -2 °C 995.5 hPa WNW 9.7 km/h 14.5 km/h 81 % 0 mm 0 W/m2
17:49 0.9 °C -2 °C 995.5 hPa WNW 11.3 km/h 16.1 km/h 81 % 0 mm 0 W/m2
17:54 0.9 °C -2 °C 995.5 hPa WNW 11.3 km/h 17.7 km/h 81 % 0 mm 0 W/m2
17:59 0.8 °C -2.1 °C 995.5 hPa WNW 11.3 km/h 19.3 km/h 81 % 0 mm 0 W/m2
18:00 0.8 °C -2.1 °C 995.5 hPa WNW 12.9 km/h 19.3 km/h 81 % 0 mm 0 W/m2
18:05 0.8 °C -2.1 °C 995.5 hPa WNW 12.9 km/h 17.7 km/h 81 % 0 mm 0 W/m2
18:07 0.8 °C -2.1 °C 995.5 hPa WNW 14.5 km/h 20.9 km/h 81 % 0 mm 0 W/m2
18:12 0.8 °C -2.1 °C 995.5 hPa WNW 16.1 km/h 22.5 km/h 81 % 0 mm 0 W/m2
18:13 0.8 °C -2.1 °C 995.5 hPa WNW 16.1 km/h 22.5 km/h 81 % 0 mm 0 W/m2
18:16 0.8 °C -2.1 °C 995.5 hPa WNW 14.5 km/h 22.5 km/h 81 % 0 mm 0 W/m2
18:20 0.8 °C -2.1 °C 995.5 hPa WNW 16.1 km/h 29 km/h 81 % 0 mm 0 W/m2
18:25 0.9 °C -2 °C 995.5 hPa WNW 16.1 km/h 29 km/h 81 % 0 mm 0 W/m2
18:26 0.9 °C -2 °C 995.5 hPa WNW 17.7 km/h 25.7 km/h 81 % 0 mm 0 W/m2
18:30 0.9 °C -2.2 °C 995.8 hPa NW 12.9 km/h 22.5 km/h 80 % 0 mm 0 W/m2
18:35 0.9 °C -2.2 °C 995.8 hPa WNW 11.3 km/h 19.3 km/h 80 % 0 mm 0 W/m2
18:36 0.9 °C -2.2 °C 995.8 hPa WNW 12.9 km/h 19.3 km/h 80 % 0 mm 0 W/m2
18:44 0.9 °C -2.2 °C 995.8 hPa WNW 12.9 km/h 19.3 km/h 80 % 0 mm 0 W/m2
18:49 0.9 °C -2.2 °C 996.2 hPa WNW 14.5 km/h 22.5 km/h 80 % 0 mm 0 W/m2
18:50 0.9 °C -2.2 °C 996.2 hPa WNW 14.5 km/h 22.5 km/h 80 % 0 mm 0 W/m2
18:55 0.8 °C -2.3 °C 996.2 hPa WNW 12.9 km/h 20.9 km/h 80 % 0 mm 0 W/m2
19:00 0.8 °C -2.1 °C 996.2 hPa WNW 11.3 km/h 20.9 km/h 81 % 0 mm 0 W/m2
19:01 0.8 °C -2.1 °C 996.2 hPa WNW 12.9 km/h 22.5 km/h 81 % 0 mm 0 W/m2
19:06 0.8 °C -2.1 °C 996.2 hPa WNW 16.1 km/h 19.3 km/h 81 % 0 mm 0 W/m2
19:08 0.8 °C -2.1 °C 996.2 hPa WNW 12.9 km/h 19.3 km/h 81 % 0 mm 0 W/m2
19:13 0.7 °C -2.2 °C 996.2 hPa WNW 12.9 km/h 20.9 km/h 81 % 0 mm 0 W/m2
19:16 0.7 °C -2.2 °C 996.2 hPa WNW 11.3 km/h 19.3 km/h 81 % 0 mm 0 W/m2
19:18 0.6 °C -2.3 °C 996.2 hPa WNW 12.9 km/h 25.7 km/h 81 % 0 mm 0 W/m2
19:23 0.6 °C -2.3 °C 996.2 hPa WNW 14.5 km/h 22.5 km/h 81 % 0 mm 0 W/m2
19:28 0.6 °C -2.3 °C 996.2 hPa WNW 14.5 km/h 20.9 km/h 81 % 0 mm 0 W/m2
19:33 0.6 °C -2.3 °C 996.2 hPa WNW 14.5 km/h 24.1 km/h 81 % 0 mm 0 W/m2
19:37 0.7 °C -2.2 °C 996.5 hPa WNW 12.9 km/h 22.5 km/h 81 % 0 mm 0 W/m2
19:41 0.7 °C -2.2 °C 996.5 hPa WNW 11.3 km/h 17.7 km/h 81 % 0 mm 0 W/m2
19:43 0.7 °C -2.2 °C 996.5 hPa WNW 12.9 km/h 17.7 km/h 81 % 0 mm 0 W/m2
19:47 0.6 °C -2.3 °C 996.5 hPa WNW 11.3 km/h 19.3 km/h 81 % 0 mm 0 W/m2
19:48 0.6 °C -2.3 °C 996.5 hPa WNW 9.7 km/h 19.3 km/h 81 % 0 mm 0 W/m2
19:53 0.6 °C -2.3 °C 996.5 hPa WNW 8 km/h 14.5 km/h 81 % 0 mm 0 W/m2
19:54 0.6 °C -2.3 °C 996.5 hPa WNW 9.7 km/h 14.5 km/h 81 % 0 mm 0 W/m2
19:59 0.5 °C -2.4 °C 996.2 hPa WNW 9.7 km/h 16.1 km/h 81 % 0 mm 0 W/m2
20:00 0.5 °C -2.4 °C 996.2 hPa WNW 9.7 km/h 16.1 km/h 81 % 0 mm 0 W/m2
20:01 0.5 °C -2.4 °C 996.2 hPa WNW 11.3 km/h 17.7 km/h 81 % 0 mm 0 W/m2
20:06 0.5 °C -2.4 °C 996.5 hPa WNW 9.7 km/h 14.5 km/h 81 % 0 mm 0 W/m2
20:11 0.6 °C -2.3 °C 996.5 hPa WNW 12.9 km/h 20.9 km/h 81 % 0 mm 0 W/m2
20:13 0.6 °C -2.3 °C 996.5 hPa WNW 11.3 km/h 16.1 km/h 81 % 0 mm 0 W/m2
20:18 0.6 °C -2.3 °C 996.5 hPa WNW 9.7 km/h 17.7 km/h 81 % 0 mm 0 W/m2
20:23 0.5 °C -2.4 °C 996.5 hPa WNW 8 km/h 12.9 km/h 81 % 0 mm 0 W/m2
20:24 0.5 °C -2.4 °C 996.5 hPa WNW 8 km/h 12.9 km/h 81 % 0 mm 0 W/m2
20:26 0.5 °C -2.4 °C 996.5 hPa WNW 8 km/h 14.5 km/h 81 % 0 mm 0 W/m2
20:31 0.4 °C -2.5 °C 996.5 hPa WNW 9.7 km/h 12.9 km/h 81 % 0 mm 0 W/m2
20:32 0.4 °C -2.5 °C 996.5 hPa WNW 8 km/h 14.5 km/h 81 % 0 mm 0 W/m2
20:37 0.4 °C -2.5 °C 996.5 hPa WNW 11.3 km/h 14.5 km/h 81 % 0 mm 0 W/m2
20:39 0.4 °C -2.5 °C 996.5 hPa WNW 11.3 km/h 17.7 km/h 81 % 0 mm 0 W/m2
20:40 0.4 °C -2.5 °C 996.8 hPa WNW 9.7 km/h 17.7 km/h 81 % 0 mm 0 W/m2
20:45 0.4 °C -2.5 °C 996.8 hPa WNW 11.3 km/h 17.7 km/h 81 % 0 mm 0 W/m2
20:47 0.4 °C -2.5 °C 996.8 hPa WNW 12.9 km/h 19.3 km/h 81 % 0 mm 0 W/m2
20:49 0.4 °C -2.5 °C 996.8 hPa WNW 12.9 km/h 19.3 km/h 81 % 0 mm 0 W/m2
20:54 0.4 °C -2.5 °C 996.8 hPa WNW 12.9 km/h 19.3 km/h 81 % 0 mm 0 W/m2
20:55 0.4 °C -2.5 °C 996.8 hPa WNW 12.9 km/h 19.3 km/h 81 % 0 mm 0 W/m2
21:00 0.4 °C -2.5 °C 996.8 hPa WNW 14.5 km/h 20.9 km/h 81 % 0 mm 0 W/m2
21:05 0.5 °C -2.4 °C 996.8 hPa WNW 12.9 km/h 17.7 km/h 81 % 0 mm 0 W/m2
21:10 0.5 °C -2.4 °C 997.2 hPa WNW 12.9 km/h 19.3 km/h 81 % 0 mm 0 W/m2
21:11 0.5 °C -2.4 °C 997.2 hPa WNW 12.9 km/h 19.3 km/h 81 % 0 mm 0 W/m2
21:16 0.5 °C -2.4 °C 997.2 hPa WNW 12.9 km/h 16.1 km/h 81 % 0 mm 0 W/m2
21:17 0.5 °C -2.4 °C 997.2 hPa WNW 12.9 km/h 16.1 km/h 81 % 0 mm 0 W/m2
21:18 0.5 °C -2.4 °C 997.2 hPa WNW 11.3 km/h 16.1 km/h 81 % 0 mm 0 W/m2
21:23 0.5 °C -2.6 °C 996.8 hPa WNW 4.8 km/h 9.7 km/h 80 % 0 mm 0 W/m2
21:28 0.4 °C -2.5 °C 996.8 hPa WNW 8 km/h 11.3 km/h 81 % 0 mm 0 W/m2
21:29 0.4 °C -2.5 °C 996.8 hPa WNW 6.4 km/h 11.3 km/h 81 % 0 mm 0 W/m2
21:34 0.3 °C -2.6 °C 996.8 hPa WNW 8 km/h 12.9 km/h 81 % 0 mm 0 W/m2
21:35 0.3 °C -2.6 °C 996.8 hPa WNW 8 km/h 12.9 km/h 81 % 0 mm 0 W/m2
21:40 0.3 °C -2.6 °C 996.8 hPa WNW 8 km/h 12.9 km/h 81 % 0 mm 0 W/m2
21:44 0.3 °C -2.6 °C 996.8 hPa WNW 9.7 km/h 14.5 km/h 81 % 0 mm 0 W/m2
21:46 0.3 °C -2.4 °C 996.8 hPa WNW 9.7 km/h 16.1 km/h 82 % 0 mm 0 W/m2
21:50 0.3 °C -2.4 °C 996.8 hPa WNW 12.9 km/h 17.7 km/h 82 % 0 mm 0 W/m2
21:53 0.3 °C -2.4 °C 996.8 hPa WNW 12.9 km/h 16.1 km/h 82 % 0 mm 0 W/m2
21:58 0.3 °C -2.4 °C 996.8 hPa WNW 12.9 km/h 19.3 km/h 82 % 0 mm 0 W/m2
22:04 0.4 °C -2.3 °C 997.2 hPa WNW 14.5 km/h 20.9 km/h 82 % 0 mm 0 W/m2
22:09 0.5 °C -2.4 °C 997.2 hPa WNW 12.9 km/h 20.9 km/h 81 % 0 mm 0 W/m2
22:10 0.5 °C -2.4 °C 997.2 hPa WNW 12.9 km/h 19.3 km/h 81 % 0 mm 0 W/m2
22:11 0.5 °C -2.4 °C 997.2 hPa WNW 11.3 km/h 16.1 km/h 81 % 0 mm 0 W/m2
22:15 0.5 °C -2.4 °C 997.2 hPa WNW 11.3 km/h 16.1 km/h 81 % 0 mm 0 W/m2
22:20 0.6 °C -2.4 °C 997.2 hPa WNW 14.5 km/h 24.1 km/h 80 % 0 mm 0 W/m2
22:26 0.6 °C -2.4 °C 997.2 hPa WNW 14.5 km/h 19.3 km/h 80 % 0 mm 0 W/m2
22:27 0.7 °C -2.3 °C 997.2 hPa WNW 14.5 km/h 24.1 km/h 80 % 0 mm 0 W/m2
22:32 0.7 °C -2.3 °C 997.2 hPa WNW 14.5 km/h 20.9 km/h 80 % 0 mm 0 W/m2
22:37 0.7 °C -2.3 °C 997.2 hPa WNW 16.1 km/h 22.5 km/h 80 % 0 mm 0 W/m2
22:39 0.7 °C -2.3 °C 997.5 hPa WNW 16.1 km/h 25.7 km/h 80 % 0 mm 0 W/m2
22:43 0.7 °C -2.3 °C 997.5 hPa WNW 12.9 km/h 25.7 km/h 80 % 0 mm 0 W/m2
22:45 0.8 °C -2.3 °C 997.5 hPa WNW 17.7 km/h 25.7 km/h 80 % 0 mm 0 W/m2
22:50 0.8 °C -2.3 °C 997.5 hPa WNW 19.3 km/h 25.7 km/h 80 % 0 mm 0 W/m2
22:55 0.9 °C -2.2 °C 997.5 hPa WNW 14.5 km/h 24.1 km/h 80 % 0 mm 0 W/m2
23:00 0.9 °C -2.2 °C 997.5 hPa WNW 14.5 km/h 19.3 km/h 80 % 0 mm 0 W/m2
23:05 0.8 °C -2.3 °C 997.5 hPa WNW 11.3 km/h 22.5 km/h 80 % 0 mm 0 W/m2
23:06 0.8 °C -2.3 °C 997.5 hPa WNW 11.3 km/h 19.3 km/h 80 % 0 mm 0 W/m2
23:11 0.8 °C -2.3 °C 997.5 hPa WNW 11.3 km/h 17.7 km/h 80 % 0 mm 0 W/m2
23:13 0.8 °C -2.3 °C 997.5 hPa WNW 11.3 km/h 16.1 km/h 80 % 0 mm 0 W/m2
23:18 0.7 °C -2.3 °C 997.5 hPa WNW 12.9 km/h 20.9 km/h 80 % 0 mm 0 W/m2
23:19 0.7 °C -2.3 °C 997.5 hPa WNW 14.5 km/h 20.9 km/h 80 % 0 mm 0 W/m2
23:21 0.7 °C -2.3 °C 997.5 hPa WNW 12.9 km/h 22.5 km/h 80 % 0 mm 0 W/m2
23:24 0.7 °C -2.3 °C 997.5 hPa WNW 14.5 km/h 22.5 km/h 80 % 0 mm 0 W/m2
23:29 0.6 °C -2.3 °C 997.2 hPa WNW 14.5 km/h 19.3 km/h 81 % 0 mm 0 W/m2
23:34 0.6 °C -2.3 °C 997.5 hPa WNW 11.3 km/h 14.5 km/h 81 % 0 mm 0 W/m2
23:39 0.5 °C -2.4 °C 997.5 hPa WNW 12.9 km/h 16.1 km/h 81 % 0 mm 0 W/m2
23:40 0.4 °C -2.5 °C 997.5 hPa WNW 11.3 km/h 16.1 km/h 81 % 0 mm 0 W/m2
23:45 0.4 °C -2.3 °C 997.5 hPa NW 11.3 km/h 16.1 km/h 82 % 0 mm 0 W/m2
23:47 0.4 °C -2.3 °C 997.5 hPa WNW 11.3 km/h 16.1 km/h 82 % 0 mm 0 W/m2
23:48 0.4 °C -2.3 °C 997.5 hPa WNW 9.7 km/h 14.5 km/h 82 % 0 mm 0 W/m2
23:53 0.4 °C -2.3 °C 997.5 hPa WNW 9.7 km/h 14.5 km/h 82 % 0 mm 0 W/m2
23:56 0.4 °C -2.3 °C 997.5 hPa WNW 11.3 km/h 17.7 km/h 82 % 0 mm 0 W/m2
23:59 0.4 °C -2.2 °C 997.5 hPa WNW 12.9 km/h 24.1 km/h 83 % 0 mm 0 W/m2
Delerius-Weather
Compliments of Weather Underground - 3 mb

Data updates at regular intervals.